sensor_id;sensor_type;location;lat;lon;timestamp;pressure;altitude;pressure_sealevel;temperature;humidity
71059;BME280;70265;47.576;19.270;2023-10-13T00:00:23;99049.25;;;14.05;100.00
71059;BME280;70265;47.576;19.270;2023-10-13T00:01:30;99047.41;;;14.05;100.00
71059;BME280;70265;47.576;19.270;2023-10-13T00:02:34;99045.94;;;14.03;100.00
71059;BME280;70265;47.576;19.270;2023-10-13T00:03:35;99048.09;;;13.99;100.00
71059;BME280;70265;47.576;19.270;2023-10-13T00:04:40;99039.34;;;13.99;100.00
71059;BME280;70265;47.576;19.270;2023-10-13T00:05:44;99045.94;;;14.03;100.00
71059;BME280;70265;47.576;19.270;2023-10-13T00:06:48;99050.38;;;14.02;100.00
71059;BME280;70265;47.576;19.270;2023-10-13T00:07:49;99050.56;;;14.01;100.00
71059;BME280;70265;47.576;19.270;2023-10-13T00:08:53;99051.56;;;14.00;100.00
71059;BME280;70265;47.576;19.270;2023-10-13T00:09:57;99045.31;;;14.01;100.00
71059;BME280;70265;47.576;19.270;2023-10-13T00:11:01;99034.75;;;14.01;100.00
71059;BME280;70265;47.576;19.270;2023-10-13T00:12:04;99042.31;;;14.04;100.00
71059;BME280;70265;47.576;19.270;2023-10-13T00:13:10;99043.31;;;14.03;100.00
71059;BME280;70265;47.576;19.270;2023-10-13T00:14:19;99044.81;;;13.97;100.00
71059;BME280;70265;47.576;19.270;2023-10-13T00:15:23;99041.03;;;13.92;100.00
71059;BME280;70265;47.576;19.270;2023-10-13T00:16:28;99039.75;;;13.88;100.00
71059;BME280;70265;47.576;19.270;2023-10-13T00:17:35;99042.53;;;13.86;100.00
71059;BME280;70265;47.576;19.270;2023-10-13T00:18:39;99044.19;;;13.87;100.00
71059;BME280;70265;47.576;19.270;2023-10-13T00:19:44;99045.00;;;13.88;100.00
71059;BME280;70265;47.576;19.270;2023-10-13T00:20:46;99049.94;;;13.91;100.00
71059;BME280;70265;47.576;19.270;2023-10-13T00:21:49;99046.13;;;13.93;100.00
71059;BME280;70265;47.576;19.270;2023-10-13T00:22:56;99045.31;;;13.93;100.00
71059;BME280;70265;47.576;19.270;2023-10-13T00:23:58;99047.13;;;13.92;100.00
71059;BME280;70265;47.576;19.270;2023-10-13T00:25:03;99042.66;;;13.93;100.00
71059;BME280;70265;47.576;19.270;2023-10-13T00:26:05;99040.38;;;13.90;100.00
71059;BME280;70265;47.576;19.270;2023-10-13T00:27:10;99042.19;;;13.89;100.00
71059;BME280;70265;47.576;19.270;2023-10-13T00:28:25;99038.25;;;13.85;100.00
71059;BME280;70265;47.576;19.270;2023-10-13T00:29:38;99037.75;;;13.82;100.00
71059;BME280;70265;47.576;19.270;2023-10-13T00:30:40;99039.09;;;13.77;100.00
71059;BME280;70265;47.576;19.270;2023-10-13T00:31:50;99040.91;;;13.69;100.00
71059;BME280;70265;47.576;19.270;2023-10-13T00:32:53;99041.75;;;13.69;100.00
71059;BME280;70265;47.576;19.270;2023-10-13T00:33:57;99046.38;;;13.67;100.00
71059;BME280;70265;47.576;19.270;2023-10-13T00:35:02;99043.41;;;13.70;100.00
71059;BME280;70265;47.576;19.270;2023-10-13T00:36:06;99035.78;;;13.75;100.00
71059;BME280;70265;47.576;19.270;2023-10-13T00:37:08;99035.44;;;13.78;100.00
71059;BME280;70265;47.576;19.270;2023-10-13T00:38:19;99036.28;;;13.79;100.00
71059;BME280;70265;47.576;19.270;2023-10-13T00:39:23;99041.22;;;13.82;100.00
71059;BME280;70265;47.576;19.270;2023-10-13T00:40:30;99041.56;;;13.79;100.00
71059;BME280;70265;47.576;19.270;2023-10-13T00:41:45;99036.94;;;13.81;100.00
71059;BME280;70265;47.576;19.270;2023-10-13T00:43:00;99036.63;;;13.84;100.00
71059;BME280;70265;47.576;19.270;2023-10-13T00:44:24;99035.59;;;13.85;100.00
71059;BME280;70265;47.576;19.270;2023-10-13T00:45:34;99042.03;;;13.83;100.00
71059;BME280;70265;47.576;19.270;2023-10-13T00:46:36;99036.47;;;13.77;100.00
71059;BME280;70265;47.576;19.270;2023-10-13T00:47:45;99039.41;;;13.74;100.00
71059;BME280;70265;47.576;19.270;2023-10-13T00:48:49;99037.78;;;13.65;100.00
71059;BME280;70265;47.576;19.270;2023-10-13T00:49:53;99036.47;;;13.61;100.00
71059;BME280;70265;47.576;19.270;2023-10-13T00:50:57;99037.63;;;13.59;100.00
71059;BME280;70265;47.576;19.270;2023-10-13T00:52:03;99039.44;;;13.58;100.00
71059;BME280;70265;47.576;19.270;2023-10-13T00:53:05;99034.38;;;13.57;100.00
71059;BME280;70265;47.576;19.270;2023-10-13T00:54:09;99032.56;;;13.57;100.00
71059;BME280;70265;47.576;19.270;2023-10-13T00:55:13;99020.34;;;13.56;100.00
71059;BME280;70265;47.576;19.270;2023-10-13T00:56:15;99038.13;;;13.54;100.00
71059;BME280;70265;47.576;19.270;2023-10-13T00:57:27;99035.84;;;13.51;100.00
71059;BME280;70265;47.576;19.270;2023-10-13T00:58:29;99032.84;;;13.54;100.00
71059;BME280;70265;47.576;19.270;2023-10-13T00:59:31;99027.44;;;13.56;100.00
71059;BME280;70265;47.576;19.270;2023-10-13T01:00:40;99036.00;;;13.58;100.00
71059;BME280;70265;47.576;19.270;2023-10-13T01:01:48;99029.25;;;13.55;100.00
71059;BME280;70265;47.576;19.270;2023-10-13T01:02:54;99034.22;;;13.50;100.00
71059;BME280;70265;47.576;19.270;2023-10-13T01:03:56;99033.19;;;13.51;100.00
71059;BME280;70265;47.576;19.270;2023-10-13T01:05:07;99027.78;;;13.53;100.00
71059;BME280;70265;47.576;19.270;2023-10-13T01:06:10;99023.47;;;13.52;100.00
71059;BME280;70265;47.576;19.270;2023-10-13T01:07:13;99032.56;;;13.49;100.00
71059;BME280;70265;47.576;19.270;2023-10-13T01:08:16;99032.56;;;13.49;100.00
71059;BME280;70265;47.576;19.270;2023-10-13T01:09:18;99031.56;;;13.50;100.00
71059;BME280;70265;47.576;19.270;2023-10-13T01:10:20;99028.59;;;13.45;100.00
71059;BME280;70265;47.576;19.270;2023-10-13T01:11:27;99032.06;;;13.46;100.00
71059;BME280;70265;47.576;19.270;2023-10-13T01:12:35;99030.25;;;13.46;100.00
71059;BME280;70265;47.576;19.270;2023-10-13T01:13:37;99031.88;;;13.47;100.00
71059;BME280;70265;47.576;19.270;2023-10-13T01:14:38;99031.09;;;13.47;100.00
71059;BME280;70265;47.576;19.270;2023-10-13T01:15:42;99026.00;;;13.29;100.00
71059;BME280;70265;47.576;19.270;2023-10-13T01:16:48;99028.47;;;13.22;100.00
71059;BME280;70265;47.576;19.270;2023-10-13T01:17:52;99029.44;;;13.21;100.00
71059;BME280;70265;47.576;19.270;2023-10-13T01:18:56;99033.38;;;13.17;100.00
71059;BME280;70265;47.576;19.270;2023-10-13T01:20:06;99028.28;;;13.16;100.00
71059;BME280;70265;47.576;19.270;2023-10-13T01:21:09;99030.09;;;13.15;100.00
71059;BME280;70265;47.576;19.270;2023-10-13T01:22:10;99032.56;;;13.17;100.00
71059;BME280;70265;47.576;19.270;2023-10-13T01:23:16;99031.25;;;13.21;100.00
71059;BME280;70265;47.576;19.270;2023-10-13T01:24:19;99034.56;;;13.23;100.00
71059;BME280;70265;47.576;19.270;2023-10-13T01:25:24;99036.19;;;13.24;100.00
71059;BME280;70265;47.576;19.270;2023-10-13T01:26:29;99037.69;;;13.27;100.00
71059;BME280;70265;47.576;19.270;2023-10-13T01:27:37;99036.69;;;13.27;100.00
71059;BME280;70265;47.576;19.270;2023-10-13T01:28:39;99034.53;;;13.31;100.00
71059;BME280;70265;47.576;19.270;2023-10-13T01:29:47;99034.53;;;13.31;100.00
71059;BME280;70265;47.576;19.270;2023-10-13T01:30:50;99037.66;;;13.35;100.00
71059;BME280;70265;47.576;19.270;2023-10-13T01:31:53;99040.97;;;13.37;100.00
71059;BME280;70265;47.576;19.270;2023-10-13T01:32:54;99039.13;;;13.37;100.00
71059;BME280;70265;47.576;19.270;2023-10-13T01:33:57;99037.81;;;13.41;100.00
71059;BME280;70265;47.576;19.270;2023-10-13T01:35:03;99036.69;;;13.44;100.00
71059;BME280;70265;47.576;19.270;2023-10-13T01:36:07;99037.50;;;13.44;100.00
71059;BME280;70265;47.576;19.270;2023-10-13T01:37:10;99037.34;;;13.46;100.00
71059;BME280;70265;47.576;19.270;2023-10-13T01:38:12;99038.16;;;13.46;100.00
71059;BME280;70265;47.576;19.270;2023-10-13T01:39:18;99043.09;;;13.49;100.00
71059;BME280;70265;47.576;19.270;2023-10-13T01:40:21;99041.94;;;13.52;100.00
71059;BME280;70265;47.576;19.270;2023-10-13T01:41:29;99042.13;;;13.50;100.00
71059;BME280;70265;47.576;19.270;2023-10-13T01:42:33;99039.47;;;13.42;100.00
71059;BME280;70265;47.576;19.270;2023-10-13T01:43:37;99037.81;;;13.41;100.00
71059;BME280;70265;47.576;19.270;2023-10-13T01:44:38;99041.97;;;13.44;100.00
71059;BME280;70265;47.576;19.270;2023-10-13T01:45:42;99040.31;;;13.43;100.00
71059;BME280;70265;47.576;19.270;2023-10-13T01:46:50;99035.19;;;13.41;100.00
71059;BME280;70265;47.576;19.270;2023-10-13T01:47:52;99036.84;;;13.42;100.00
71059;BME280;70265;47.576;19.270;2023-10-13T01:48:53;99040.31;;;13.43;100.00
71059;BME280;70265;47.576;19.270;2023-10-13T01:49:58;99043.78;;;13.43;100.00
71059;BME280;70265;47.576;19.270;2023-10-13T01:51:07;99046.41;;;13.43;100.00
71059;BME280;70265;47.576;19.270;2023-10-13T01:52:10;99051.66;;;13.43;100.00
71059;BME280;70265;47.576;19.270;2023-10-13T01:53:12;99051.50;;;13.45;100.00
71059;BME280;70265;47.576;19.270;2023-10-13T01:54:20;99053.97;;;13.46;100.00
71059;BME280;70265;47.576;19.270;2023-10-13T01:55:24;99050.81;;;13.51;100.00
71059;BME280;70265;47.576;19.270;2023-10-13T01:56:25;99053.16;;;13.54;100.00
71059;BME280;70265;47.576;19.270;2023-10-13T01:57:31;99056.59;;;13.54;100.00
71059;BME280;70265;47.576;19.270;2023-10-13T01:58:33;99044.22;;;13.55;100.00
71059;BME280;70265;47.576;19.270;2023-10-13T01:59:35;99042.28;;;13.57;100.00
71059;BME280;70265;47.576;19.270;2023-10-13T02:00:45;99046.38;;;13.59;100.00
71059;BME280;70265;47.576;19.270;2023-10-13T02:01:49;99046.03;;;13.62;100.00
71059;BME280;70265;47.576;19.270;2023-10-13T02:02:52;99050.16;;;13.65;100.00
71059;BME280;70265;47.576;19.270;2023-10-13T02:03:55;99042.22;;;13.65;100.00
71059;BME280;70265;47.576;19.270;2023-10-13T02:05:05;99047.69;;;13.63;100.00
71059;BME280;70265;47.576;19.270;2023-10-13T02:06:07;99046.38;;;13.59;100.00
71059;BME280;70265;47.576;19.270;2023-10-13T02:07:11;99047.19;;;13.60;100.00
71059;BME280;70265;47.576;19.270;2023-10-13T02:08:16;99049.00;;;13.59;100.00
71059;BME280;70265;47.576;19.270;2023-10-13T02:09:26;99046.53;;;13.58;100.00
71059;BME280;70265;47.576;19.270;2023-10-13T02:10:27;99049.66;;;13.61;100.00
71059;BME280;70265;47.576;19.270;2023-10-13T02:11:31;99058.25;;;13.63;100.00
71059;BME280;70265;47.576;19.270;2023-10-13T02:12:35;99050.00;;;13.66;100.00
71059;BME280;70265;47.576;19.270;2023-10-13T02:13:43;99052.94;;;13.71;100.00
71059;BME280;70265;47.576;19.270;2023-10-13T02:14:49;99048.63;;;13.78;100.00
71059;BME280;70265;47.576;19.270;2023-10-13T02:15:56;99056.69;;;13.85;100.00
71059;BME280;70265;47.576;19.270;2023-10-13T02:16:58;99053.56;;;13.90;100.00
71059;BME280;70265;47.576;19.270;2023-10-13T02:18:14;99051.25;;;13.95;100.00
71059;BME280;70265;47.576;19.270;2023-10-13T02:19:26;99052.53;;;13.99;100.00
71059;BME280;70265;47.576;19.270;2023-10-13T02:20:28;99041.84;;;14.00;100.00
71059;BME280;70265;47.576;19.270;2023-10-13T02:21:31;99052.19;;;14.02;100.00
71059;BME280;70265;47.576;19.270;2023-10-13T02:22:39;99042.47;;;14.02;100.00
71059;BME280;70265;47.576;19.270;2023-10-13T02:23:49;99032.13;;;13.85;100.00
71059;BME280;70265;47.576;19.270;2023-10-13T02:25:06;99036.28;;;13.79;100.00
71059;BME280;70265;47.576;19.270;2023-10-13T02:26:17;99038.91;;;13.79;100.00
71059;BME280;70265;47.576;19.270;2023-10-13T02:27:33;99035.97;;;13.74;100.00
71059;BME280;70265;47.576;19.270;2023-10-13T02:28:41;99036.78;;;13.74;100.00
71059;BME280;70265;47.576;19.270;2023-10-13T02:29:42;99033.34;;;13.74;100.00
71059;BME280;70265;47.576;19.270;2023-10-13T02:30:47;99036.13;;;13.72;100.00
71059;BME280;70265;47.576;19.270;2023-10-13T02:31:51;99034.13;;;13.74;100.00
71059;BME280;70265;47.576;19.270;2023-10-13T02:32:55;99039.25;;;13.76;100.00
71059;BME280;70265;47.576;19.270;2023-10-13T02:33:57;99034.13;;;13.74;100.00
71059;BME280;70265;47.576;19.270;2023-10-13T02:35:04;99033.34;;;13.74;100.00
71059;BME280;70265;47.576;19.270;2023-10-13T02:36:08;99029.88;;;13.73;100.00
71059;BME280;70265;47.576;19.270;2023-10-13T02:37:12;99029.69;;;13.75;100.00
71059;BME280;70265;47.576;19.270;2023-10-13T02:38:22;99024.25;;;13.76;100.00
71059;BME280;70265;47.576;19.270;2023-10-13T02:39:34;99032.00;;;13.78;100.00
71059;BME280;70265;47.576;19.270;2023-10-13T02:40:39;99025.72;;;13.79;100.00
71059;BME280;70265;47.576;19.270;2023-10-13T02:41:43;99029.19;;;13.80;100.00
71059;BME280;70265;47.576;19.270;2023-10-13T02:42:48;99033.31;;;13.82;100.00
71059;BME280;70265;47.576;19.270;2023-10-13T02:43:49;99044.53;;;13.84;100.00
71059;BME280;70265;47.576;19.270;2023-10-13T02:44:53;99039.25;;;13.84;100.00
71059;BME280;70265;47.576;19.270;2023-10-13T02:45:58;99041.06;;;13.84;100.00
71059;BME280;70265;47.576;19.270;2023-10-13T02:47:00;99042.69;;;13.85;100.00
71059;BME280;70265;47.576;19.270;2023-10-13T02:48:01;99042.69;;;13.85;100.00
71059;BME280;70265;47.576;19.270;2023-10-13T02:49:17;99052.25;;;13.86;100.00
71059;BME280;70265;47.576;19.270;2023-10-13T02:50:20;99056.53;;;13.87;100.00
71059;BME280;70265;47.576;19.270;2023-10-13T02:51:25;99067.09;;;13.87;100.00
71059;BME280;70265;47.576;19.270;2023-10-13T02:52:34;99065.63;;;13.84;100.00
71059;BME280;70265;47.576;19.270;2023-10-13T02:53:38;99069.06;;;13.85;100.00
71059;BME280;70265;47.576;19.270;2023-10-13T02:54:40;99062.16;;;13.84;100.00
71059;BME280;70265;47.576;19.270;2023-10-13T02:55:55;99071.03;;;13.83;100.00
71059;BME280;70265;47.576;19.270;2023-10-13T02:56:58;99076.16;;;13.84;100.00
71059;BME280;70265;47.576;19.270;2023-10-13T02:58:01;99074.31;;;13.85;100.00
71059;BME280;70265;47.576;19.270;2023-10-13T02:59:06;99082.06;;;13.86;100.00
71059;BME280;70265;47.576;19.270;2023-10-13T03:00:09;99082.91;;;13.87;100.00
71059;BME280;70265;47.576;19.270;2023-10-13T03:01:16;99083.56;;;13.89;100.00
71059;BME280;70265;47.576;19.270;2023-10-13T03:02:21;99079.28;;;13.88;100.00
71059;BME280;70265;47.576;19.270;2023-10-13T03:03:26;99083.41;;;13.90;100.00
71059;BME280;70265;47.576;19.270;2023-10-13T03:04:30;99088.31;;;13.93;100.00
71059;BME280;70265;47.576;19.270;2023-10-13T03:05:35;99090.97;;;13.93;100.00
71059;BME280;70265;47.576;19.270;2023-10-13T03:06:36;99086.19;;;13.97;100.00
71059;BME280;70265;47.576;19.270;2023-10-13T03:07:40;99081.72;;;13.97;100.00
71059;BME280;70265;47.576;19.270;2023-10-13T03:08:45;99085.84;;;14.00;100.00
71059;BME280;70265;47.576;19.270;2023-10-13T03:09:47;99084.84;;;14.01;100.00
71059;BME280;70265;47.576;19.270;2023-10-13T03:10:54;99081.06;;;14.03;100.00
71059;BME280;70265;47.576;19.270;2023-10-13T03:11:56;99084.34;;;14.05;100.00
71059;BME280;70265;47.576;19.270;2023-10-13T03:13:00;99081.69;;;14.05;100.00
71059;BME280;70265;47.576;19.270;2023-10-13T03:14:02;99084.19;;;14.07;100.00
71059;BME280;70265;47.576;19.270;2023-10-13T03:15:08;99077.91;;;14.08;100.00
71059;BME280;70265;47.576;19.270;2023-10-13T03:16:15;99077.91;;;14.08;100.00
71059;BME280;70265;47.576;19.270;2023-10-13T03:17:20;99070.16;;;14.06;100.00
71059;BME280;70265;47.576;19.270;2023-10-13T03:18:33;99074.25;;;14.09;100.00
71059;BME280;70265;47.576;19.270;2023-10-13T03:19:37;99072.47;;;14.09;100.00
71059;BME280;70265;47.576;19.270;2023-10-13T03:20:41;99067.03;;;14.11;100.00
71059;BME280;70265;47.576;19.270;2023-10-13T03:21:43;99060.72;;;14.12;100.00
71059;BME280;70265;47.576;19.270;2023-10-13T03:22:47;99058.78;;;14.14;100.00
71059;BME280;70265;47.576;19.270;2023-10-13T03:23:48;99049.88;;;14.15;100.00
71059;BME280;70265;47.576;19.270;2023-10-13T03:24:54;99051.16;;;14.19;100.00
71059;BME280;70265;47.576;19.270;2023-10-13T03:26:09;99048.34;;;14.20;100.00
71059;BME280;70265;47.576;19.270;2023-10-13T03:27:11;99050.16;;;14.20;100.00
71059;BME280;70265;47.576;19.270;2023-10-13T03:28:17;99058.06;;;14.20;100.00
71059;BME280;70265;47.576;19.270;2023-10-13T03:29:21;99063.34;;;14.20;100.00
71059;BME280;70265;47.576;19.270;2023-10-13T03:30:25;99066.66;;;14.22;100.00
71059;BME280;70265;47.576;19.270;2023-10-13T03:31:35;99065.66;;;14.23;100.00
71059;BME280;70265;47.576;19.270;2023-10-13T03:32:37;99075.03;;;14.25;100.00
71059;BME280;70265;47.576;19.270;2023-10-13T03:33:44;99078.50;;;14.26;100.00
71059;BME280;70265;47.576;19.270;2023-10-13T03:34:49;99070.44;;;14.27;100.00
71059;BME280;70265;47.576;19.270;2023-10-13T03:35:52;99063.16;;;14.29;100.00
71059;BME280;70265;47.576;19.270;2023-10-13T03:37:05;99054.88;;;14.33;100.00
71059;BME280;70265;47.576;19.270;2023-10-13T03:38:13;99059.72;;;14.21;100.00
71059;BME280;70265;47.576;19.270;2023-10-13T03:39:21;99057.94;;;14.13;100.00
71059;BME280;70265;47.576;19.270;2023-10-13T03:40:29;99054.31;;;14.14;100.00
71059;BME280;70265;47.576;19.270;2023-10-13T03:41:39;99050.84;;;14.14;100.00
71059;BME280;70265;47.576;19.270;2023-10-13T03:42:41;99045.56;;;14.14;100.00
71059;BME280;70265;47.576;19.270;2023-10-13T03:43:58;99040.13;;;14.15;100.00
71059;BME280;70265;47.576;19.270;2023-10-13T03:45:10;99033.03;;;14.16;100.00
71059;BME280;70265;47.576;19.270;2023-10-13T03:46:13;99031.22;;;14.16;100.00
71059;BME280;70265;47.576;19.270;2023-10-13T03:47:15;99029.41;;;14.17;100.00
71059;BME280;70265;47.576;19.270;2023-10-13T03:48:27;99027.41;;;14.19;100.00
71059;BME280;70265;47.576;19.270;2023-10-13T03:49:31;99029.53;;;14.23;100.00
71059;BME280;70265;47.576;19.270;2023-10-13T03:50:38;99024.25;;;14.23;100.00
71059;BME280;70265;47.576;19.270;2023-10-13T03:51:48;99016.19;;;14.25;100.00
71059;BME280;70265;47.576;19.270;2023-10-13T03:52:55;99016.97;;;14.25;100.00
71059;BME280;70265;47.576;19.270;2023-10-13T03:53:58;99006.28;;;14.27;100.00
71059;BME280;70265;47.576;19.270;2023-10-13T03:55:11;99009.75;;;14.27;100.00
71059;BME280;70265;47.576;19.270;2023-10-13T03:56:18;99004.28;;;14.29;100.00
71059;BME280;70265;47.576;19.270;2023-10-13T03:57:31;98993.78;;;14.21;100.00
71059;BME280;70265;47.576;19.270;2023-10-13T03:58:39;98992.97;;;14.12;100.00
71059;BME280;70265;47.576;19.270;2023-10-13T03:59:46;98985.06;;;14.12;100.00
71059;BME280;70265;47.576;19.270;2023-10-13T04:00:49;98993.66;;;14.14;100.00
71059;BME280;70265;47.576;19.270;2023-10-13T04:01:53;98991.84;;;14.15;100.00
71059;BME280;70265;47.576;19.270;2023-10-13T04:02:59;98998.25;;;14.12;100.00
71059;BME280;70265;47.576;19.270;2023-10-13T04:04:17;99004.69;;;14.10;100.00
71059;BME280;70265;47.576;19.270;2023-10-13T04:05:35;99008.31;;;14.09;100.00
71059;BME280;70265;47.576;19.270;2023-10-13T04:06:46;98995.81;;;14.11;100.00
71059;BME280;70265;47.576;19.270;2023-10-13T04:07:54;98996.44;;;14.13;100.00
71059;BME280;70265;47.576;19.270;2023-10-13T04:09:18;98994.00;;;14.11;100.00
71059;BME280;70265;47.576;19.270;2023-10-13T04:10:40;99004.53;;;14.11;100.00
71059;BME280;70265;47.576;19.270;2023-10-13T04:11:56;99016.38;;;14.15;100.00
71059;BME280;70265;47.576;19.270;2023-10-13T04:13:17;99013.56;;;14.17;100.00
71059;BME280;70265;47.576;19.270;2023-10-13T04:14:38;99018.69;;;14.18;100.00
71059;BME280;70265;47.576;19.270;2023-10-13T04:16:03;99012.41;;;14.19;100.00
71059;BME280;70265;47.576;19.270;2023-10-13T04:17:35;99016.53;;;14.22;100.00
71059;BME280;70265;47.576;19.270;2023-10-13T04:18:41;99020.31;;;14.19;100.00
71059;BME280;70265;47.576;19.270;2023-10-13T04:19:53;99017.06;;;14.09;100.00
71059;BME280;70265;47.576;19.270;2023-10-13T04:21:09;99006.38;;;14.03;100.00
71059;BME280;70265;47.576;19.270;2023-10-13T04:22:34;99004.72;;;14.02;100.00
71059;BME280;70265;47.576;19.270;2023-10-13T04:23:50;99008.03;;;14.04;100.00
71059;BME280;70265;47.576;19.270;2023-10-13T04:25:19;99011.31;;;14.06;100.00
71059;BME280;70265;47.576;19.270;2023-10-13T04:26:38;99003.72;;;14.11;100.00
71059;BME280;70265;47.576;19.270;2023-10-13T04:28:00;98993.66;;;14.14;100.00
71059;BME280;70265;47.576;19.270;2023-10-13T04:29:18;98991.66;;;14.16;100.00
71059;BME280;70265;47.576;19.270;2023-10-13T04:30:29;98985.19;;;14.19;100.00
71059;BME280;70265;47.576;19.270;2023-10-13T04:31:55;98995.59;;;14.20;100.00
71059;BME280;70265;47.576;19.270;2023-10-13T04:33:00;98988.50;;;14.21;100.00
71059;BME280;70265;47.576;19.270;2023-10-13T04:34:35;98982.88;;;14.24;100.00
71059;BME280;70265;47.576;19.270;2023-10-13T04:35:40;98984.53;;;14.25;100.00
71059;BME280;70265;47.576;19.270;2023-10-13T04:36:48;98975.78;;;14.24;100.00
71059;BME280;70265;47.576;19.270;2023-10-13T04:37:56;98979.25;;;14.25;100.00
71059;BME280;70265;47.576;19.270;2023-10-13T04:39:03;98991.44;;;14.26;100.00
71059;BME280;70265;47.576;19.270;2023-10-13T04:40:10;98989.47;;;14.28;100.00
71059;BME280;70265;47.576;19.270;2023-10-13T04:41:11;98997.38;;;14.28;100.00
71059;BME280;70265;47.576;19.270;2023-10-13T04:42:23;98996.19;;;14.31;100.00
71059;BME280;70265;47.576;19.270;2023-10-13T04:43:40;98990.28;;;14.28;100.00
71059;BME280;70265;47.576;19.270;2023-10-13T04:44:59;98996.34;;;14.29;100.00
71059;BME280;70265;47.576;19.270;2023-10-13T04:46:16;98999.66;;;14.31;100.00
71059;BME280;70265;47.576;19.270;2023-10-13T04:47:35;99003.28;;;14.30;100.00
71059;BME280;70265;47.576;19.270;2023-10-13T04:48:48;98996.72;;;14.26;100.00
71059;BME280;70265;47.576;19.270;2023-10-13T04:49:49;99001.31;;;14.32;100.00
71059;BME280;70265;47.576;19.270;2023-10-13T04:50:52;99009.22;;;14.32;100.00
71059;BME280;70265;47.576;19.270;2023-10-13T04:52:16;99008.56;;;14.30;100.00
71059;BME280;70265;47.576;19.270;2023-10-13T04:53:39;99001.63;;;14.29;100.00
71059;BME280;70265;47.576;19.270;2023-10-13T04:55:01;99001.63;;;14.29;100.00
71059;BME280;70265;47.576;19.270;2023-10-13T04:56:12;98997.19;;;14.29;100.00
71059;BME280;70265;47.576;19.270;2023-10-13T04:57:28;98998.84;;;14.31;100.00
71059;BME280;70265;47.576;19.270;2023-10-13T04:58:35;98992.56;;;14.32;100.00
71059;BME280;70265;47.576;19.270;2023-10-13T05:00:07;98996.84;;;14.33;100.00
71059;BME280;70265;47.576;19.270;2023-10-13T05:01:34;99002.63;;;14.36;100.00
71059;BME280;70265;47.576;19.270;2023-10-13T05:02:55;99013.84;;;14.38;100.00
71059;BME280;70265;47.576;19.270;2023-10-13T05:04:27;99017.94;;;14.41;100.00
71059;BME280;70265;47.576;19.270;2023-10-13T05:05:42;99024.88;;;14.42;100.00
71059;BME280;70265;47.576;19.270;2023-10-13T05:07:07;99035.25;;;14.43;100.00
71059;BME280;70265;47.576;19.270;2023-10-13T05:08:23;99035.25;;;14.43;100.00
71059;BME280;70265;47.576;19.270;2023-10-13T05:09:39;99029.97;;;14.43;100.00
71059;BME280;70265;47.576;19.270;2023-10-13T05:10:55;99026.97;;;14.46;100.00
71059;BME280;70265;47.576;19.270;2023-10-13T05:12:26;99031.47;;;14.46;100.00
71059;BME280;70265;47.576;19.270;2023-10-13T05:13:42;99031.63;;;14.44;100.00
71059;BME280;70265;47.576;19.270;2023-10-13T05:14:58;99023.56;;;14.38;100.00
71059;BME280;70265;47.576;19.270;2023-10-13T05:16:16;99013.38;;;14.35;100.00
71059;BME280;70265;47.576;19.270;2023-10-13T05:17:32;99019.47;;;14.35;100.00
71059;BME280;70265;47.576;19.270;2023-10-13T05:18:48;99015.66;;;14.38;100.00
71059;BME280;70265;47.576;19.270;2023-10-13T05:20:06;99031.50;;;14.38;100.00
71059;BME280;70265;47.576;19.270;2023-10-13T05:21:22;99028.03;;;14.37;100.00
71059;BME280;70265;47.576;19.270;2023-10-13T05:22:38;99023.38;;;14.39;100.00
71059;BME280;70265;47.576;19.270;2023-10-13T05:23:54;99024.22;;;14.40;100.00
71059;BME280;70265;47.576;19.270;2023-10-13T05:25:19;99033.63;;;14.42;100.00
71059;BME280;70265;47.576;19.270;2023-10-13T05:26:35;99038.06;;;14.42;100.00
71059;BME280;70265;47.576;19.270;2023-10-13T05:27:52;99035.44;;;14.42;100.00
71059;BME280;70265;47.576;19.270;2023-10-13T05:29:08;99040.53;;;14.43;100.00
71059;BME280;70265;47.576;19.270;2023-10-13T05:30:24;99035.25;;;14.43;100.00
71059;BME280;70265;47.576;19.270;2023-10-13T05:31:42;99034.91;;;14.46;100.00
71059;BME280;70265;47.576;19.270;2023-10-13T05:32:58;99026.00;;;14.47;100.00
71059;BME280;70265;47.576;19.270;2023-10-13T05:34:14;99034.75;;;14.48;100.00
71059;BME280;70265;47.576;19.270;2023-10-13T05:35:31;99040.84;;;14.48;100.00
71059;BME280;70265;47.576;19.270;2023-10-13T05:36:47;99046.94;;;14.49;100.00
71059;BME280;70265;47.576;19.270;2023-10-13T05:38:03;99066.22;;;14.49;100.00
71059;BME280;70265;47.576;19.270;2023-10-13T05:39:19;99071.50;;;14.49;100.00
71059;BME280;70265;47.576;19.270;2023-10-13T05:40:36;99072.31;;;14.50;100.00
71059;BME280;70265;47.576;19.270;2023-10-13T05:41:52;99072.81;;;14.53;100.00
71059;BME280;70265;47.576;19.270;2023-10-13T05:43:08;99077.94;;;14.55;100.00
71059;BME280;70265;47.576;19.270;2023-10-13T05:44:24;99085.50;;;14.58;100.00
71059;BME280;70265;47.576;19.270;2023-10-13T05:45:38;99084.66;;;14.57;100.00
71059;BME280;70265;47.576;19.270;2023-10-13T05:47:04;99085.66;;;14.56;100.00
71059;BME280;70265;47.576;19.270;2023-10-13T05:48:26;99075.56;;;14.60;100.00
71059;BME280;70265;47.576;19.270;2023-10-13T05:49:43;99077.56;;;14.66;100.00
71059;BME280;70265;47.576;19.270;2023-10-13T05:51:05;99073.41;;;14.63;100.00
71059;BME280;70265;47.576;19.270;2023-10-13T05:52:21;99075.22;;;14.63;100.00
71059;BME280;70265;47.576;19.270;2023-10-13T05:53:37;99075.41;;;14.61;100.00
71059;BME280;70265;47.576;19.270;2023-10-13T05:54:53;99083.69;;;14.58;100.00